createdAt,value
2022-12-25T00:01:57.503Z,99983.13
2022-12-25T00:06:59.735Z,99973.56
2022-12-25T00:12:01.339Z,99964.88
2022-12-25T00:17:02.999Z,99959.75
2022-12-25T00:22:04.643Z,99970.59
2022-12-25T00:27:06.327Z,99981.63
2022-12-25T00:32:08.150Z,99968.31
2022-12-25T00:37:09.777Z,99979.69
2022-12-25T00:42:20.450Z,99978.56
2022-12-25T00:47:22.266Z,99977.34
2022-12-25T00:52:23.895Z,99964.16
2022-12-25T00:57:25.518Z,99963.88
2022-12-25T01:02:27.325Z,99961.09
2022-12-25T01:07:29.147Z,99970.38
2022-12-25T01:12:33.225Z,99970.16
2022-12-25T01:17:35.153Z,99970.34
2022-12-25T01:22:36.919Z,99964.78
2022-12-25T01:27:40.997Z,99971.47
2022-12-25T01:32:42.619Z,99970.59
2022-12-25T01:37:44.266Z,99991.63
2022-12-25T01:42:45.901Z,99994.03
2022-12-25T01:47:47.586Z,100007.44
2022-12-25T01:52:50.677Z,100017.31
2022-12-25T01:57:52.404Z,100013.50
2022-12-25T02:02:54.105Z,100012.03
2022-12-25T02:07:58.301Z,100015.88
2022-12-25T02:13:01.196Z,100015.16
2022-12-25T02:18:26.864Z,100020.09
2022-12-25T02:23:34.726Z,100024.09
2022-12-25T02:28:36.998Z,100032.72
2022-12-25T02:34:26.050Z,100012.22
2022-12-25T02:39:55.239Z,100019.25
2022-12-25T02:45:15.639Z,100023.78
2022-12-25T02:50:36.859Z,100028.50
2022-12-25T02:56:00.284Z,100030.47
2022-12-25T03:01:33.571Z,100021.00
2022-12-25T03:06:44.005Z,100025.06
2022-12-25T03:11:48.579Z,100021.63
2022-12-25T03:16:54.152Z,100023.53
2022-12-25T03:22:16.279Z,100014.41
2022-12-25T03:27:17.971Z,100011.47
2022-12-25T03:32:27.573Z,100021.22
2022-12-25T03:38:18.596Z,100019.53
2022-12-25T03:44:06.733Z,100019.59
2022-12-25T03:49:43.725Z,100026.44
2022-12-25T03:55:06.116Z,100025.25
2022-12-25T04:00:26.817Z,100047.44
2022-12-25T04:05:47.144Z,100051.56
2022-12-25T04:11:07.411Z,100063.13
2022-12-25T04:16:27.795Z,100067.06
2022-12-25T04:21:48.165Z,100081.78
2022-12-25T04:27:08.376Z,100068.56
2022-12-25T04:32:28.506Z,100065.59
2022-12-25T04:37:30.252Z,100050.44
2022-12-25T04:42:31.874Z,100040.81
2022-12-25T04:47:33.529Z,100051.41
2022-12-25T04:52:40.428Z,100059.34
2022-12-25T04:57:42.144Z,100060.09
2022-12-25T05:02:43.846Z,100061.47
2022-12-25T05:07:45.725Z,100064.97
2022-12-25T05:12:47.586Z,100072.34
2022-12-25T05:17:50.684Z,100077.25
2022-12-25T05:22:52.273Z,100077.13
2022-12-25T05:27:54.122Z,100074.06
2022-12-25T05:32:55.894Z,100076.81
2022-12-25T05:37:57.880Z,100065.41
2022-12-25T05:42:59.712Z,100072.88
2022-12-25T05:48:01.607Z,100073.09
2022-12-25T05:53:08.324Z,100066.06
2022-12-25T05:58:12.449Z,100061.44
2022-12-25T06:03:14.235Z,100062.00
2022-12-25T06:08:16.105Z,100059.88
2022-12-25T06:13:17.718Z,100061.94
2022-12-25T06:18:19.316Z,100061.09
2022-12-25T06:23:21.055Z,100060.03
2022-12-25T06:28:22.725Z,100053.16
2022-12-25T06:33:24.385Z,100048.78
2022-12-25T06:38:25.983Z,100052.44
2022-12-25T06:43:27.535Z,100049.03
2022-12-25T06:48:29.150Z,100063.19
2022-12-25T06:53:37.077Z,100066.84
2022-12-25T06:58:43.271Z,100048.91
2022-12-25T07:03:46.751Z,100054.50
2022-12-25T07:08:48.723Z,100067.69
2022-12-25T07:13:50.724Z,100069.75
2022-12-25T07:18:52.341Z,100072.66
2022-12-25T07:23:53.969Z,100091.78
2022-12-25T07:28:56.308Z,100087.84
2022-12-25T07:33:58.005Z,100082.59
2022-12-25T07:38:59.673Z,100094.97
2022-12-25T07:44:02.516Z,100089.81
2022-12-25T07:49:04.485Z,100091.63
2022-12-25T07:54:06.133Z,100096.16
2022-12-25T07:59:07.734Z,100097.34
2022-12-25T08:04:09.729Z,100097.69
2022-12-25T08:09:13.014Z,100104.78
2022-12-25T08:14:14.719Z,100100.44
2022-12-25T08:19:16.434Z,100096.63
2022-12-25T08:24:18.173Z,100100.78
2022-12-25T08:29:19.845Z,100095.00
2022-12-25T08:34:21.782Z,100114.94
2022-12-25T08:39:23.453Z,100107.72
2022-12-25T08:44:25.088Z,100103.69
2022-12-25T08:49:29.149Z,100094.28
2022-12-25T08:54:33.787Z,100081.88
2022-12-25T08:59:35.417Z,100077.28
2022-12-25T09:04:37.036Z,100082.84
2022-12-25T09:09:38.687Z,100076.88
2022-12-25T09:14:40.308Z,100068.81
2022-12-25T09:19:41.924Z,100053.84
2022-12-25T09:24:43.844Z,100056.53
2022-12-25T09:29:45.445Z,100036.44
2022-12-25T09:34:47.080Z,100023.53
2022-12-25T09:39:48.775Z,100024.16
2022-12-25T09:45:00.484Z,100004.94
2022-12-25T09:50:15.220Z,99998.41
2022-12-25T09:55:23.086Z,100003.44
2022-12-25T10:00:32.066Z,99985.22
2022-12-25T10:05:52.991Z,99998.09
2022-12-25T10:11:04.160Z,100001.84
2022-12-25T10:16:38.744Z,99999.44
2022-12-25T10:21:41.410Z,99983.56
2022-12-25T10:26:43.162Z,99992.03
2022-12-25T10:31:47.235Z,99988.94
2022-12-25T10:36:50.155Z,99964.94
2022-12-25T10:42:05.698Z,99948.47
2022-12-25T10:47:07.312Z,99964.53
2022-12-25T10:52:27.985Z,99957.31
2022-12-25T10:57:29.868Z,99938.56
2022-12-25T11:02:40.466Z,99922.22
2022-12-25T11:07:51.328Z,99930.25
2022-12-25T11:12:54.093Z,99922.53
2022-12-25T11:17:55.700Z,99950.66
2022-12-25T11:22:57.380Z,99947.75
2022-12-25T11:28:02.506Z,99926.91
2022-12-25T11:33:12.403Z,99917.97
2022-12-25T11:38:14.011Z,99881.81
2022-12-25T11:43:20.331Z,99866.78
2022-12-25T11:48:31.620Z,99866.66
2022-12-25T11:53:39.913Z,99864.38
2022-12-25T11:58:55.477Z,99845.47
2022-12-25T12:04:00.767Z,99822.06
2022-12-25T12:09:21.479Z,99815.38
2022-12-25T12:14:32.213Z,99824.50
2022-12-25T12:19:34.864Z,99803.66
2022-12-25T12:24:41.711Z,99796.75
2022-12-25T12:29:45.617Z,99796.09
2022-12-25T12:34:50.606Z,99805.00
2022-12-25T12:39:56.158Z,99789.84
2022-12-25T12:45:08.992Z,99767.22
2022-12-25T12:50:41.141Z,99760.31
2022-12-25T12:55:42.821Z,99738.97
2022-12-25T13:00:52.421Z,99737.75
2022-12-25T13:06:14.524Z,99714.31
2022-12-25T13:11:25.525Z,99706.97
2022-12-25T13:16:33.640Z,99738.88
2022-12-25T13:21:35.701Z,99756.50
2022-12-25T13:26:39.310Z,99768.72
2022-12-25T13:31:41.519Z,99763.56
2022-12-25T13:36:43.330Z,99774.63
2022-12-25T13:42:06.275Z,99775.78
2022-12-25T13:47:21.590Z,99776.66
2022-12-25T13:52:35.254Z,99770.75
2022-12-25T13:57:43.723Z,99760.00
2022-12-25T14:02:46.404Z,99757.69
2022-12-25T14:07:55.980Z,99767.06
2022-12-25T14:13:01.210Z,99766.75
2022-12-25T14:18:03.021Z,99732.31
2022-12-25T14:23:05.236Z,99727.09
2022-12-25T14:28:09.884Z,99709.81
2022-12-25T14:33:21.209Z,99715.53
2022-12-25T14:38:34.926Z,99722.91
2022-12-25T14:43:36.663Z,99717.53
2022-12-25T14:48:38.283Z,99709.84
2022-12-25T14:53:47.705Z,99696.44
2022-12-25T14:58:52.705Z,99698.47
2022-12-25T15:04:06.055Z,99700.97
2022-12-25T15:09:16.601Z,99710.66
2022-12-25T15:14:18.841Z,99694.41
2022-12-25T15:19:30.407Z,99674.03
2022-12-25T15:24:35.058Z,99665.91
2022-12-25T15:30:08.803Z,99666.03
2022-12-25T15:34:58.242Z,99664.03
2022-12-25T15:39:59.892Z,99654.47
2022-12-25T15:45:01.508Z,99661.97
2022-12-25T15:50:03.293Z,99642.03
2022-12-25T15:55:06.418Z,99658.59
2022-12-25T16:00:13.495Z,99645.63
2022-12-25T16:05:15.399Z,99637.22
2022-12-25T16:10:19.289Z,99628.13
2022-12-25T16:15:20.885Z,99611.03
2022-12-25T16:20:22.502Z,99605.88
2022-12-25T16:25:24.263Z,99609.13
2022-12-25T16:30:25.928Z,99624.44
2022-12-25T16:35:27.611Z,99623.34
2022-12-25T16:40:29.567Z,99619.56
2022-12-25T16:45:31.257Z,99621.31
2022-12-25T16:50:32.985Z,99617.59
2022-12-25T16:55:36.806Z,99605.84
2022-12-25T17:00:38.445Z,99592.53
2022-12-25T17:05:40.074Z,99577.88
2022-12-25T17:10:41.671Z,99558.50
2022-12-25T17:15:48.494Z,99556.38
2022-12-25T17:20:53.805Z,99544.78
2022-12-25T17:25:55.415Z,99528.41
2022-12-25T17:31:05.924Z,99506.88
2022-12-25T17:36:13.978Z,99497.47
2022-12-25T17:41:17.705Z,99510.75
2022-12-25T17:46:22.300Z,99490.56
2022-12-25T17:51:26.205Z,99478.66
2022-12-25T17:56:27.849Z,99467.97
2022-12-25T18:01:29.564Z,99462.78
2022-12-25T18:06:31.318Z,99469.06
2022-12-25T18:11:33.309Z,99469.16
2022-12-25T18:16:37.707Z,99454.91
2022-12-25T18:21:39.455Z,99456.50
2022-12-25T18:26:41.122Z,99448.44
2022-12-25T18:31:42.855Z,99437.13
2022-12-25T18:36:44.971Z,99438.22
2022-12-25T18:42:05.014Z,99427.16
2022-12-25T18:47:06.659Z,99430.31
2022-12-25T18:52:49.173Z,99424.84
2022-12-25T18:57:32.165Z,99435.16
2022-12-25T19:02:33.927Z,99433.66
2022-12-25T19:07:36.522Z,99419.25
2022-12-25T19:12:38.125Z,99427.16
2022-12-25T19:17:39.785Z,99425.66
2022-12-25T19:22:41.423Z,99426.25
2022-12-25T19:27:43.040Z,99430.03
2022-12-25T19:32:44.676Z,99434.41
2022-12-25T19:37:46.269Z,99442.03
2022-12-25T19:42:47.889Z,99446.00
2022-12-25T19:47:49.515Z,99439.72
2022-12-25T19:52:51.134Z,99434.91
2022-12-25T19:57:52.828Z,99425.59
2022-12-25T20:02:54.580Z,99430.56
2022-12-25T20:07:57.210Z,99414.47
2022-12-25T20:12:58.821Z,99411.97
2022-12-25T20:18:01.679Z,99410.34
2022-12-25T20:23:03.732Z,99401.06
2022-12-25T20:28:05.341Z,99398.72
2022-12-25T20:33:07.618Z,99402.38
2022-12-25T20:38:09.232Z,99399.06
2022-12-25T20:43:10.837Z,99406.31
2022-12-25T20:48:13.116Z,99405.00
2022-12-25T20:53:15.021Z,99389.50
2022-12-25T20:58:17.868Z,99402.06
2022-12-25T21:03:19.602Z,99389.69
2022-12-25T21:08:24.906Z,99387.16
2022-12-25T21:13:29.594Z,99382.59
2022-12-25T21:18:31.296Z,99375.22
2022-12-25T21:23:35.721Z,99383.84
2022-12-25T21:28:37.492Z,99378.66
2022-12-25T21:33:55.160Z,99382.47
2022-12-25T21:38:59.428Z,99379.78
2022-12-25T21:44:01.455Z,99364.25
2022-12-25T21:49:03.218Z,99369.84
2022-12-25T21:54:05.784Z,99365.28
2022-12-25T21:59:08.915Z,99387.25
2022-12-25T22:04:11.599Z,99384.75
2022-12-25T22:09:13.220Z,99377.78
2022-12-25T22:14:51.404Z,99387.09
2022-12-25T22:19:55.780Z,99383.97
2022-12-25T22:25:00.704Z,99366.72
2022-12-25T22:30:02.499Z,99361.69
2022-12-25T22:35:04.432Z,99354.41
2022-12-25T22:40:07.483Z,99375.88
2022-12-25T22:45:09.654Z,99371.97
2022-12-25T22:50:12.937Z,99364.94
2022-12-25T22:55:17.420Z,99356.56
2022-12-25T23:00:19.096Z,99361.78
2022-12-25T23:05:20.671Z,99356.66
2022-12-25T23:10:22.312Z,99365.38
2022-12-25T23:15:24.074Z,99342.44
2022-12-25T23:20:44.684Z,99352.41
2022-12-25T23:26:06.720Z,99366.06
2022-12-25T23:31:09.421Z,99382.84
2022-12-25T23:36:11.206Z,99375.78
2022-12-25T23:41:12.803Z,99375.97
2022-12-25T23:46:15.164Z,99377.38
2022-12-25T23:51:16.861Z,99386.53
2022-12-25T23:56:18.477Z,99364.13
